Time;durP1;ratioP1;P1;durP2;ratioP2;P2;SDS_P1;SDS_P2;PMS_P1;PMS_P2;Temp;Humidity;BMP_temperature;BMP_pressure;BME280_temperature;BME280_humidity;BME280_pressure;Samples;Min_cycle;Max_cycle;Signal;HPM_P1;HPM_P2
2021/08/24 00:02:04;;;;;;;1.70;1.48;;;22.10;72.10;;;;;;4192306;28;20052;-59
2021/08/24 00:04:27;;;;;;;2.88;1.63;;;22.10;72.10;;;;;;4192195;28;20052;-58
2021/08/24 00:06:50;;;;;;;2.90;2.13;;;22.20;72.20;;;;;;4192603;28;20550;-58
2021/08/24 00:09:13;;;;;;;4.00;2.25;;;22.20;72.20;;;;;;4192120;28;20072;-58
2021/08/24 00:11:35;;;;;;;2.00;1.80;;;22.20;72.10;;;;;;4192408;28;20049;-58
2021/08/24 00:13:57;;;;;;;3.53;1.92;;;22.10;72.10;;;;;;4192004;28;20048;-59
2021/08/24 00:16:19;;;;;;;2.45;1.77;;;22.10;72.20;;;;;;4191994;28;20044;-59
2021/08/24 00:18:41;;;;;;;1.67;1.58;;;22.10;72.20;;;;;;4193980;28;20044;-59
2021/08/24 00:21:04;;;;;;;3.25;1.95;;;22.10;72.20;;;;;;4208241;28;20048;-59
2021/08/24 00:23:29;;;;;;;2.50;1.83;;;22.10;72.10;;;;;;4208881;28;20040;-59
2021/08/24 00:25:54;;;;;;;1.92;1.63;;;22.10;72.10;;;;;;4208893;28;20047;-58
2021/08/24 00:28:17;;;;;;;5.18;1.80;;;22.10;72.10;;;;;;4190774;28;20044;-58
2021/08/24 00:30:39;;;;;;;1.95;1.60;;;22.10;72.20;;;;;;4199659;28;20113;-59
2021/08/24 00:33:01;;;;;;;2.58;1.88;;;22.10;72.20;;;;;;4208554;28;20056;-58
2021/08/24 00:35:23;;;;;;;2.00;1.77;;;22.10;72.20;;;;;;4204701;28;20044;-59
2021/08/24 00:37:45;;;;;;;2.80;2.10;;;22.10;72.20;;;;;;4191906;28;20076;-59
2021/08/24 00:40:09;;;;;;;2.58;2.10;;;22.10;72.20;;;;;;4191932;28;20481;-58
2021/08/24 00:42:33;;;;;;;1.73;1.63;;;22.10;72.40;;;;;;4191714;28;20040;-58
2021/08/24 00:44:55;;;;;;;2.40;2.10;;;22.10;72.30;;;;;;4191692;28;20141;-58
2021/08/24 00:47:19;;;;;;;2.83;2.35;;;22.10;72.30;;;;;;4191774;28;20054;-58
2021/08/24 00:49:44;;;;;;;2.67;1.95;;;22.10;72.30;;;;;;4190603;28;20056;-58
2021/08/24 00:52:10;;;;;;;1.95;1.70;;;22.10;72.30;;;;;;4191817;28;20411;-59
2021/08/24 00:54:32;;;;;;;2.40;1.70;;;22.10;72.30;;;;;;4191189;28;20052;-59
2021/08/24 00:57:02;;;;;;;2.60;2.13;;;22.10;72.40;;;;;;4199063;28;20104;-59
2021/08/24 00:59:26;;;;;;;4.43;2.03;;;22.10;72.40;;;;;;4208078;28;20123;-58
2021/08/24 01:01:49;;;;;;;2.10;1.90;;;22.00;72.30;;;;;;4208231;28;20047;-58
2021/08/24 01:04:12;;;;;;;2.00;1.80;;;22.10;72.40;;;;;;4207914;28;20402;-58
2021/08/24 01:06:38;;;;;;;3.92;2.10;;;22.10;72.50;;;;;;4193106;28;20461;-59
2021/08/24 01:09:07;;;;;;;3.28;2.38;;;22.10;72.30;;;;;;4191432;28;20045;-59
2021/08/24 01:11:39;;;;;;;2.00;1.90;;;22.00;72.20;;;;;;4191138;28;20052;-60
2021/08/24 01:14:12;;;;;;;3.13;2.47;;;22.00;72.10;;;;;;4192752;28;20048;-59
2021/08/24 01:16:41;;;;;;;2.47;2.28;;;22.00;72.20;;;;;;4191192;28;20048;-59
2021/08/24 01:19:28;;;;;;;2.58;2.35;;;22.00;72.20;;;;;;4193244;28;20135;-59
2021/08/24 01:22:17;;;;;;;2.72;2.15;;;22.00;72.20;;;;;;4174635;28;20045;-59
2021/08/24 01:24:45;;;;;;;2.33;2.00;;;22.00;72.20;;;;;;4191790;28;20070;-58
2021/08/24 01:27:11;;;;;;;3.00;2.47;;;22.00;72.40;;;;;;4190593;28;20056;-59
2021/08/24 01:30:02;;;;;;;2.30;2.10;;;22.00;72.30;;;;;;4192354;28;20044;-59
2021/08/24 01:32:56;;;;;;;3.10;2.45;;;22.00;72.40;;;;;;4190910;28;20056;-59
2021/08/24 01:35:26;;;;;;;2.58;2.38;;;22.00;72.50;;;;;;4195982;28;20036;-58
2021/08/24 01:38:02;;;;;;;3.20;2.30;;;21.90;72.60;;;;;;4174267;28;20494;-58
2021/08/24 01:40:36;;;;;;;3.13;2.10;;;22.00;72.60;;;;;;4174243;28;20041;-59
2021/08/24 01:42:59;;;;;;;3.72;1.98;;;21.90;72.60;;;;;;4174150;28;20120;-58
2021/08/24 01:45:28;;;;;;;1.88;1.77;;;21.90;72.80;;;;;;4174358;28;20049;-58
2021/08/24 01:47:54;;;;;;;1.70;1.58;;;21.90;73.60;;;;;;4174481;28;20069;-59
2021/08/24 01:50:20;;;;;;;3.22;1.95;;;21.90;72.80;;;;;;4192657;28;20051;-59
2021/08/24 01:52:47;;;;;;;1.83;1.73;;;21.90;72.90;;;;;;4191092;28;20049;-59
2021/08/24 01:55:19;;;;;;;4.50;2.10;;;21.90;73.00;;;;;;4190910;28;20052;-59
2021/08/24 01:57:47;;;;;;;2.72;1.90;;;21.90;72.90;;;;;;4206385;28;20052;-59
2021/08/24 02:00:13;;;;;;;2.40;1.55;;;21.90;72.90;;;;;;4208232;28;20131;-59
2021/08/24 02:02:40;;;;;;;1.88;1.63;;;21.90;72.90;;;;;;4211074;28;20051;-59
2021/08/24 02:05:09;;;;;;;3.17;1.80;;;21.90;72.90;;;;;;4206655;28;20093;-59
2021/08/24 02:07:33;;;;;;;4.57;2.03;;;21.90;73.10;;;;;;4193775;28;20048;-59
2021/08/24 02:10:00;;;;;;;3.47;2.22;;;21.90;73.20;;;;;;4194068;28;20048;-59
2021/08/24 02:12:25;;;;;;;2.72;1.70;;;21.90;73.20;;;;;;4192794;28;20054;-59
2021/08/24 02:14:47;;;;;;;3.42;1.75;;;21.90;73.40;;;;;;4194159;28;20049;-59
2021/08/24 02:17:12;;;;;;;2.67;1.80;;;21.80;73.50;;;;;;4194441;28;20056;-59
2021/08/24 02:19:40;;;;;;;2.95;1.90;;;21.90;73.50;;;;;;4201895;28;20047;-59
2021/08/24 02:22:07;;;;;;;3.72;2.17;;;21.80;73.60;;;;;;4194044;28;20058;-59
2021/08/24 02:24:35;;;;;;;3.33;2.30;;;21.80;73.70;;;;;;4194029;28;20076;-59
2021/08/24 02:26:59;;;;;;;2.47;2.00;;;21.80;73.70;;;;;;4193561;28;20143;-59
2021/08/24 02:29:22;;;;;;;3.63;1.90;;;21.80;73.90;;;;;;4193751;28;20567;-58
2021/08/24 02:31:50;;;;;;;2.28;2.08;;;21.80;73.90;;;;;;4193641;28;20051;-59
2021/08/24 02:34:19;;;;;;;1.95;1.75;;;21.80;73.80;;;;;;4194062;28;20629;-58
2021/08/24 02:36:47;;;;;;;1.92;1.77;;;21.80;73.70;;;;;;4203878;28;20052;-60
2021/08/24 02:39:14;;;;;;;2.17;1.98;;;21.80;73.70;;;;;;4196160;28;20151;-59
2021/08/24 02:41:42;;;;;;;2.25;1.75;;;21.80;73.70;;;;;;4193467;28;20514;-59
2021/08/24 02:44:10;;;;;;;3.40;2.58;;;21.80;73.70;;;;;;4193519;28;20106;-59
2021/08/24 02:46:37;;;;;;;4.53;2.67;;;21.80;73.60;;;;;;4193985;28;20761;-59
2021/08/24 02:49:03;;;;;;;2.20;2.00;;;21.80;73.60;;;;;;4193285;28;20502;-60
2021/08/24 02:51:27;;;;;;;2.78;1.80;;;21.80;73.60;;;;;;4178336;28;20104;-59
2021/08/24 02:53:58;;;;;;;3.88;2.10;;;21.80;73.60;;;;;;4193652;28;20048;-59
2021/08/24 02:56:20;;;;;;;2.05;1.85;;;21.80;74.30;;;;;;4187893;28;20048;-60
2021/08/24 02:58:42;;;;;;;2.38;2.17;;;21.80;73.90;;;;;;4193565;28;20048;-58
2021/08/24 03:01:04;;;;;;;3.00;1.90;;;21.70;73.70;;;;;;4193408;28;20098;-60
2021/08/24 03:03:28;;;;;;;3.40;2.13;;;21.80;73.60;;;;;;4193903;28;20102;-59
2021/08/24 03:05:50;;;;;;;2.40;1.90;;;21.70;73.50;;;;;;4205489;28;20511;-59
2021/08/24 03:08:13;;;;;;;2.30;2.00;;;21.70;73.70;;;;;;4209976;28;20146;-59
2021/08/24 03:10:38;;;;;;;2.17;2.08;;;21.70;73.60;;;;;;4209995;28;20417;-59
2021/08/24 03:13:10;;;;;;;3.60;2.63;;;21.70;73.50;;;;;;4208941;28;20048;-58
2021/08/24 03:15:37;;;;;;;5.10;2.40;;;21.70;73.40;;;;;;4203139;28;20048;-59
2021/08/24 03:18:07;;;;;;;1.90;1.80;;;21.70;73.50;;;;;;4204524;28;20079;-59
2021/08/24 03:20:35;;;;;;;2.47;2.22;;;21.70;74.00;;;;;;4199072;28;20076;-59
2021/08/24 03:23:00;;;;;;;2.38;2.00;;;21.70;73.90;;;;;;4193109;28;20056;-59
2021/08/24 03:25:24;;;;;;;4.40;2.05;;;21.70;74.10;;;;;;4192816;28;20059;-58
2021/08/24 03:27:51;;;;;;;2.25;1.90;;;21.70;74.10;;;;;;4192686;28;20131;-59
2021/08/24 03:30:16;;;;;;;1.90;1.80;;;21.70;74.10;;;;;;4192664;28;20127;-59
2021/08/24 03:32:38;;;;;;;2.97;1.80;;;21.70;74.10;;;;;;4192499;28;20478;-60
2021/08/24 03:35:04;;;;;;;2.28;1.75;;;21.70;74.30;;;;;;4199512;28;20755;-59
2021/08/24 03:37:53;;;;;;;2.80;2.05;;;21.70;74.30;;;;;;4209440;28;20093;-59
2021/08/24 03:40:17;;;;;;;1.70;1.60;;;21.70;74.40;;;;;;4209453;28;20405;-58
2021/08/24 03:42:39;;;;;;;3.72;1.70;;;21.60;75.30;;;;;;4209393;28;20059;-59
2021/08/24 03:45:01;;;;;;;3.05;1.90;;;21.60;74.40;;;;;;4206719;28;20055;-59
2021/08/24 03:47:23;;;;;;;1.95;1.60;;;21.60;74.50;;;;;;4192697;28;20051;-59
2021/08/24 03:49:45;;;;;;;2.20;1.90;;;21.60;74.40;;;;;;4197224;28;20048;-59
2021/08/24 03:52:09;;;;;;;1.80;1.70;;;21.60;74.20;;;;;;4208789;28;20064;-59
2021/08/24 03:54:32;;;;;;;1.88;1.77;;;21.60;74.30;;;;;;4176073;28;22534;-59
2021/08/24 03:56:54;;;;;;;2.35;1.45;;;21.60;74.40;;;;;;4176064;28;20072;-59
2021/08/24 03:59:16;;;;;;;2.38;1.60;;;21.60;74.50;;;;;;4185091;28;20047;-59
2021/08/24 04:01:38;;;;;;;2.85;1.98;;;21.60;74.50;;;;;;4209323;28;20075;-60
2021/08/24 04:04:00;;;;;;;2.20;2.00;;;21.60;74.60;;;;;;4209174;28;20075;-59
2021/08/24 04:06:23;;;;;;;3.15;2.30;;;21.60;74.50;;;;;;4205665;28;20044;-60
2021/08/24 04:08:45;;;;;;;2.42;2.00;;;21.60;74.50;;;;;;4209088;28;20502;-59
2021/08/24 04:11:09;;;;;;;2.80;1.90;;;21.60;74.60;;;;;;4208785;28;20058;-59
2021/08/24 04:13:32;;;;;;;1.88;1.77;;;21.60;74.20;;;;;;4207958;28;20544;-59
2021/08/24 04:15:54;;;;;;;3.13;2.17;;;21.60;74.60;;;;;;4208929;28;20043;-59
2021/08/24 04:18:16;;;;;;;3.50;1.90;;;21.50;74.50;;;;;;4208747;28;20047;-59
2021/08/24 04:20:40;;;;;;;2.08;1.88;;;21.60;74.50;;;;;;4195222;28;20121;-59
2021/08/24 04:23:03;;;;;;;2.50;2.17;;;21.50;74.20;;;;;;4192253;28;20048;-59
2021/08/24 04:25:25;;;;;;;2.13;1.92;;;21.50;74.30;;;;;;4200832;28;20495;-59
2021/08/24 04:27:48;;;;;;;2.78;1.75;;;21.50;74.40;;;;;;4208630;28;20059;-59
2021/08/24 04:30:12;;;;;;;2.25;1.70;;;21.50;74.50;;;;;;4208716;28;20503;-59
2021/08/24 04:32:37;;;;;;;3.75;2.03;;;21.50;74.60;;;;;;4208603;28;20040;-59
2021/08/24 04:34:59;;;;;;;2.10;1.85;;;21.50;74.70;;;;;;4206776;28;20067;-59
2021/08/24 04:37:22;;;;;;;2.72;2.17;;;21.50;74.90;;;;;;4207161;28;20392;-59
2021/08/24 04:39:44;;;;;;;2.00;1.75;;;21.50;74.90;;;;;;4208702;28;20123;-59
2021/08/24 04:42:06;;;;;;;2.20;1.98;;;21.50;74.90;;;;;;4206912;28;20036;-59
2021/08/24 04:44:29;;;;;;;2.42;2.28;;;21.50;74.90;;;;;;4207544;28;20077;-58
2021/08/24 04:46:53;;;;;;;1.95;1.80;;;21.50;74.90;;;;;;4208276;28;20559;-59
2021/08/24 04:49:15;;;;;;;3.00;2.60;;;21.40;75.00;;;;;;4206753;28;20089;-59
2021/08/24 04:51:37;;;;;;;2.15;1.95;;;21.50;74.90;;;;;;4207783;28;20059;-59
2021/08/24 04:53:59;;;;;;;4.30;1.90;;;21.50;75.10;;;;;;4207808;28;20584;-59
2021/08/24 04:56:21;;;;;;;2.10;1.77;;;21.50;75.20;;;;;;4208483;28;20089;-59
2021/08/24 04:58:43;;;;;;;2.20;2.00;;;21.40;75.20;;;;;;4208595;28;20040;-59
2021/08/24 05:01:07;;;;;;;3.70;2.03;;;21.40;75.10;;;;;;4208374;28;20036;-59
2021/08/24 05:03:29;;;;;;;4.65;2.25;;;21.40;75.10;;;;;;4208112;28;20094;-59
2021/08/24 05:05:52;;;;;;;2.72;2.30;;;21.40;75.20;;;;;;4206900;28;20444;-59
2021/08/24 05:08:14;;;;;;;3.47;2.60;;;21.40;75.20;;;;;;4196903;28;20453;-59
2021/08/24 05:10:36;;;;;;;3.85;2.40;;;21.40;75.20;;;;;;4191205;28;20098;-59
2021/08/24 05:13:00;;;;;;;3.08;2.53;;;21.40;75.20;;;;;;4191420;28;20119;-60
2021/08/24 05:15:23;;;;;;;4.20;2.38;;;21.40;75.40;;;;;;4191106;28;20553;-59
2021/08/24 05:17:49;;;;;;;2.50;2.30;;;21.40;75.40;;;;;;4191354;28;20072;-59
2021/08/24 05:20:12;;;;;;;2.35;2.15;;;21.40;75.30;;;;;;4193094;28;20098;-60
2021/08/24 05:22:34;;;;;;;2.05;1.90;;;21.40;75.50;;;;;;4191009;28;20056;-59
2021/08/24 05:24:57;;;;;;;2.25;2.15;;;21.40;75.50;;;;;;4191235;28;20053;-60
2021/08/24 05:27:19;;;;;;;2.35;2.25;;;21.40;75.50;;;;;;4191276;28;20055;-59
2021/08/24 05:29:41;;;;;;;2.83;2.00;;;21.40;75.40;;;;;;4189942;28;20098;-60
2021/08/24 05:32:04;;;;;;;2.92;1.95;;;21.40;75.40;;;;;;4190950;28;20094;-60
2021/08/24 05:34:28;;;;;;;2.40;2.03;;;21.40;75.50;;;;;;4195956;28;20047;-59
2021/08/24 05:36:50;;;;;;;2.38;1.90;;;21.40;75.30;;;;;;4208074;28;20062;-59
2021/08/24 05:39:13;;;;;;;2.30;2.10;;;21.40;75.20;;;;;;4207897;28;20062;-59
2021/08/24 05:41:37;;;;;;;3.38;2.72;;;21.40;74.90;;;;;;4207710;28;20051;-59
2021/08/24 05:43:59;;;;;;;2.72;2.33;;;21.40;75.20;;;;;;4203242;28;20048;-59
2021/08/24 05:46:22;;;;;;;2.25;2.15;;;21.40;75.40;;;;;;4191122;28;20059;-59
2021/08/24 05:48:45;;;;;;;2.50;2.15;;;21.40;75.90;;;;;;4190961;28;20636;-58
2021/08/24 05:51:14;;;;;;;3.15;2.10;;;21.40;75.80;;;;;;4203049;28;20055;-58
2021/08/24 05:53:36;;;;;;;2.20;2.00;;;21.40;75.70;;;;;;4181158;28;20054;-58
2021/08/24 05:55:58;;;;;;;5.35;2.10;;;21.40;75.60;;;;;;4190856;28;20490;-58
2021/08/24 05:58:21;;;;;;;3.28;2.38;;;21.40;75.20;;;;;;4201203;28;20048;-59
2021/08/24 06:00:43;;;;;;;3.90;2.20;;;21.40;74.60;;;;;;4207074;28;20498;-59
2021/08/24 06:03:05;;;;;;;3.88;1.98;;;21.40;75.90;;;;;;4207792;28;20480;-61
2021/08/24 06:05:27;;;;;;;3.38;2.45;;;21.50;76.10;;;;;;4191433;28;20051;-61
2021/08/24 06:07:51;;;;;;;9.77;7.75;;;21.50;76.70;;;;;;4190722;28;20864;-61
2021/08/24 06:10:13;;;;;;;5.38;2.28;;;21.40;77.10;;;;;;4190431;28;20060;-61
2021/08/24 06:12:36;;;;;;;3.72;2.30;;;21.40;77.40;;;;;;4190286;28;20051;-61
2021/08/24 06:14:58;;;;;;;2.70;2.50;;;21.40;77.60;;;;;;4190203;28;20155;-60
2021/08/24 06:17:19;;;;;;;3.38;1.98;;;21.40;77.50;;;;;;4190498;28;20059;-61
2021/08/24 06:19:42;;;;;;;3.83;2.10;;;21.40;76.80;;;;;;4191347;28;20045;-61
2021/08/24 06:22:05;;;;;;;4.75;2.10;;;21.40;76.60;;;;;;4196156;28;20052;-61
2021/08/24 06:24:29;;;;;;;2.50;2.30;;;21.40;76.80;;;;;;4190934;28;20131;-61
2021/08/24 06:26:51;;;;;;;2.63;2.25;;;21.40;77.20;;;;;;4190856;28;20129;-61
2021/08/24 06:29:13;;;;;;;2.45;2.25;;;21.40;77.50;;;;;;4190458;28;20106;-61
2021/08/24 06:31:39;;;;;;;2.50;2.00;;;21.40;77.90;;;;;;4190816;28;20083;-60
2021/08/24 06:34:01;;;;;;;1.92;1.83;;;21.40;78.10;;;;;;4192486;28;20395;-61
2021/08/24 06:36:24;;;;;;;2.03;1.92;;;21.40;78.30;;;;;;4201861;28;20587;-60
2021/08/24 06:38:47;;;;;;;2.97;2.08;;;21.40;78.50;;;;;;4190913;28;20072;-60
2021/08/24 06:41:10;;;;;;;3.25;2.33;;;21.40;78.70;;;;;;4190708;28;20052;-60
2021/08/24 06:43:33;;;;;;;4.93;2.10;;;21.50;79.00;;;;;;4190637;28;20109;-61
2021/08/24 06:45:55;;;;;;;2.45;2.00;;;21.50;79.20;;;;;;4190950;28;20064;-59
2021/08/24 06:48:17;;;;;;;2.28;2.08;;;21.50;79.40;;;;;;4193361;28;20060;-59
2021/08/24 06:50:40;;;;;;;4.03;1.92;;;21.50;79.50;;;;;;4177408;28;20114;-60
2021/08/24 06:53:04;;;;;;;2.15;1.80;;;21.50;79.70;;;;;;4197911;28;20131;-60
2021/08/24 06:55:30;;;;;;;2.00;1.83;;;21.60;80.00;;;;;;4179965;28;20055;-60
2021/08/24 06:57:54;;;;;;;3.28;1.67;;;21.60;80.00;;;;;;4209014;28;20043;-61
2021/08/24 07:00:19;;;;;;;4.30;1.45;;;21.70;79.90;;;;;;4210626;28;20055;-60
2021/08/24 07:02:41;;;;;;;5.10;1.85;;;21.70;79.70;;;;;;4209384;28;20048;-60
2021/08/24 07:05:06;;;;;;;2.55;1.42;;;21.80;79.90;;;;;;4192193;28;20053;-60
2021/08/24 07:07:27;;;;;;;2.50;1.30;;;21.80;79.90;;;;;;4193395;28;20054;-60
2021/08/24 07:09:51;;;;;;;5.47;2.28;;;21.80;79.50;;;;;;4176350;28;20056;-61
2021/08/24 07:12:13;;;;;;;2.50;1.52;;;21.80;79.20;;;;;;4175279;28;20075;-59
2021/08/24 07:14:37;;;;;;;3.28;1.48;;;21.90;79.30;;;;;;4180253;28;20041;-60
2021/08/24 07:16:59;;;;;;;3.45;1.33;;;21.90;79.10;;;;;;4195622;28;20131;-58
2021/08/24 07:19:21;;;;;;;4.32;1.67;;;21.90;78.90;;;;;;4193276;28;20529;-59
2021/08/24 07:21:43;;;;;;;5.05;1.67;;;22.00;79.10;;;;;;4193111;28;20051;-61
2021/08/24 07:24:06;;;;;;;2.55;1.58;;;22.00;79.20;;;;;;4193076;28;20059;-60
2021/08/24 07:26:28;;;;;;;2.28;1.58;;;22.00;79.30;;;;;;4192856;28;20131;-60
2021/08/24 07:28:50;;;;;;;2.78;1.40;;;22.10;79.50;;;;;;4193147;28;20060;-60
2021/08/24 07:31:14;;;;;;;2.22;1.65;;;22.10;79.40;;;;;;4193109;28;20144;-60
2021/08/24 07:33:37;;;;;;;2.90;1.20;;;22.10;80.00;;;;;;4194632;28;20094;-59
2021/08/24 07:36:00;;;;;;;2.65;1.30;;;22.10;78.90;;;;;;4192937;28;20056;-60
2021/08/24 07:38:22;;;;;;;1.98;1.30;;;22.10;78.90;;;;;;4192705;28;20498;-60
2021/08/24 07:40:45;;;;;;;2.08;1.38;;;22.10;78.90;;;;;;4192773;28;20040;-60
2021/08/24 07:43:07;;;;;;;3.53;1.48;;;22.10;78.90;;;;;;4192546;28;20486;-59
2021/08/24 07:45:29;;;;;;;4.80;1.70;;;22.10;79.10;;;;;;4192769;28;20601;-60
2021/08/24 07:47:53;;;;;;;5.55;1.40;;;22.10;79.10;;;;;;4192679;28;20044;-60
2021/08/24 07:50:15;;;;;;;3.22;1.60;;;22.20;79.10;;;;;;4176160;28;20057;-59
2021/08/24 07:52:36;;;;;;;2.67;1.42;;;22.20;79.10;;;;;;4175992;28;20131;-60
2021/08/24 07:54:59;;;;;;;4.57;1.88;;;22.20;78.70;;;;;;4176161;28;20045;-60
2021/08/24 07:57:21;;;;;;;3.67;1.30;;;22.30;78.50;;;;;;4184684;28;20430;-62
2021/08/24 07:59:45;;;;;;;2.20;1.40;;;22.30;78.40;;;;;;4198617;28;20059;-60
2021/08/24 08:02:15;;;;;;;4.00;1.70;;;22.30;78.40;;;;;;4189091;28;20597;-61
2021/08/24 08:04:38;;;;;;;2.75;1.40;;;22.40;79.00;;;;;;4187186;28;20048;-61
2021/08/24 08:07:00;;;;;;;4.35;1.60;;;22.40;78.10;;;;;;4187782;28;20063;-61
2021/08/24 08:09:23;;;;;;;1.40;1.13;;;22.40;77.70;;;;;;4206223;28;20048;-61
2021/08/24 08:11:46;;;;;;;1.40;1.30;;;22.40;77.60;;;;;;4209082;28;20060;-61
2021/08/24 08:14:11;;;;;;;3.65;1.65;;;22.40;77.90;;;;;;4202001;28;20079;-61
2021/08/24 08:16:33;;;;;;;2.22;1.63;;;22.50;77.90;;;;;;4204288;28;20410;-61
2021/08/24 08:18:55;;;;;;;3.33;1.20;;;22.50;77.40;;;;;;4207440;28;20132;-61
2021/08/24 08:21:18;;;;;;;3.50;1.50;;;22.50;77.50;;;;;;4208867;28;20146;-61
2021/08/24 08:23:41;;;;;;;2.05;1.63;;;22.50;77.30;;;;;;4208712;28;25538;-61
2021/08/24 08:26:03;;;;;;;2.38;1.60;;;22.60;76.70;;;;;;4208776;28;20059;-61
2021/08/24 08:28:25;;;;;;;2.72;1.60;;;22.60;75.80;;;;;;4208572;28;20044;-61
2021/08/24 08:30:47;;;;;;;2.58;1.77;;;22.60;74.40;;;;;;4205490;28;20102;-61
2021/08/24 08:33:10;;;;;;;4.28;1.40;;;22.60;74.50;;;;;;4192854;28;20080;-61
2021/08/24 08:35:32;;;;;;;2.10;1.10;;;22.60;74.90;;;;;;4202441;28;20051;-61
2021/08/24 08:37:56;;;;;;;4.10;1.60;;;22.70;75.20;;;;;;4195239;28;20066;-61
2021/08/24 08:40:25;;;;;;;1.60;1.20;;;22.70;75.40;;;;;;4191417;28;20627;-62
2021/08/24 08:43:02;;;;;;;1.65;1.23;;;22.70;75.60;;;;;;4174939;28;20469;-61
2021/08/24 08:45:30;;;;;;;3.70;1.80;;;22.70;75.20;;;;;;4175024;28;20041;-61
2021/08/24 08:48:05;;;;;;;2.30;2.10;;;22.80;74.50;;;;;;4176157;28;20044;-60
2021/08/24 08:50:35;;;;;;;3.38;1.80;;;22.80;73.80;;;;;;4206781;28;20055;-61
2021/08/24 08:53:07;;;;;;;3.90;1.40;;;22.80;72.30;;;;;;4207956;27;20048;-61
2021/08/24 08:55:36;;;;;;;4.00;1.60;;;22.80;72.80;;;;;;4206222;27;20048;-60
2021/08/24 08:58:07;;;;;;;2.53;1.60;;;22.70;72.60;;;;;;4177297;28;20049;-60
2021/08/24 09:00:42;;;;;;;1.95;1.35;;;22.80;73.20;;;;;;4190756;28;20197;-60
2021/08/24 09:03:14;;;;;;;3.17;1.30;;;22.80;73.50;;;;;;4193538;27;20056;-60
2021/08/24 09:05:36;;;;;;;2.30;1.30;;;22.70;73.60;;;;;;4189721;28;20441;-60
2021/08/24 09:08:01;;;;;;;1.60;1.50;;;22.70;72.90;;;;;;4191070;28;20059;-60
2021/08/24 09:10:29;;;;;;;1.73;1.20;;;22.70;73.10;;;;;;4190291;28;20059;-60
2021/08/24 09:12:56;;;;;;;3.22;1.52;;;22.70;73.60;;;;;;4191543;28;20059;-60
2021/08/24 09:15:23;;;;;;;2.53;1.42;;;22.60;73.40;;;;;;4197892;27;20052;-61
2021/08/24 09:17:48;;;;;;;1.80;1.58;;;22.60;74.00;;;;;;4196971;27;20060;-61
2021/08/24 09:20:17;;;;;;;2.17;1.80;;;22.60;74.20;;;;;;4191314;28;20413;-61
2021/08/24 09:22:40;;;;;;;3.08;1.33;;;22.60;73.00;;;;;;4174897;28;20056;-60
2021/08/24 09:25:08;;;;;;;2.10;1.58;;;22.70;73.00;;;;;;4174584;28;20136;-61
2021/08/24 09:27:43;;;;;;;2.22;1.52;;;22.60;73.00;;;;;;4157767;28;20558;-61
2021/08/24 09:30:07;;;;;;;3.67;1.77;;;22.60;73.50;;;;;;4157935;28;20072;-62
2021/08/24 09:32:30;;;;;;;1.98;1.58;;;22.60;73.80;;;;;;4158132;28;20057;-61
2021/08/24 09:35:00;;;;;;;1.60;1.50;;;22.60;73.40;;;;;;4157989;28;20586;-59
2021/08/24 09:37:23;;;;;;;4.03;2.05;;;22.60;73.30;;;;;;4156724;28;20511;-60
2021/08/24 09:39:53;;;;;;;2.45;2.00;;;22.60;73.10;;;;;;4174528;28;20084;-60
2021/08/24 09:42:26;;;;;;;3.58;1.70;;;22.60;73.20;;;;;;4177841;28;20093;-60
2021/08/24 09:44:47;;;;;;;2.20;1.45;;;22.60;73.60;;;;;;4190687;28;20498;-60
2021/08/24 09:47:17;;;;;;;3.85;2.38;;;22.60;73.60;;;;;;4191226;28;20106;-60
2021/08/24 09:49:41;;;;;;;2.60;1.27;;;22.60;73.60;;;;;;4206788;27;20490;-60
2021/08/24 09:52:07;;;;;;;1.77;1.67;;;22.70;73.40;;;;;;4207827;27;20059;-60
2021/08/24 09:54:32;;;;;;;2.10;1.90;;;22.70;73.10;;;;;;4207173;27;20504;-61
2021/08/24 09:56:58;;;;;;;2.83;1.73;;;22.70;73.50;;;;;;4206955;27;20122;-62
2021/08/24 09:59:28;;;;;;;1.80;1.60;;;22.70;73.80;;;;;;4189854;27;20060;-61
2021/08/24 10:01:51;;;;;;;4.32;1.88;;;22.70;73.60;;;;;;4174131;28;20049;-60
2021/08/24 10:04:14;;;;;;;1.92;1.83;;;22.80;73.60;;;;;;4187298;28;20048;-60
2021/08/24 10:06:40;;;;;;;2.90;1.52;;;22.80;72.60;;;;;;4189694;28;20121;-61
2021/08/24 10:09:16;;;;;;;2.15;1.80;;;22.80;72.30;;;;;;4207251;28;20052;-61
2021/08/24 10:11:38;;;;;;;2.58;1.50;;;22.90;71.50;;;;;;4207035;28;20075;-60
2021/08/24 10:14:12;;;;;;;1.88;1.35;;;22.90;72.20;;;;;;4205914;28;20508;-60
2021/08/24 10:16:39;;;;;;;2.28;2.08;;;22.90;72.40;;;;;;4199224;28;20093;-60
2021/08/24 10:19:08;;;;;;;2.95;1.90;;;23.00;72.60;;;;;;4191891;28;20048;-60
2021/08/24 10:21:34;;;;;;;2.30;1.83;;;23.00;72.50;;;;;;4208289;28;20516;-60
2021/08/24 10:23:59;;;;;;;4.25;1.55;;;23.00;72.00;;;;;;4210793;28;20074;-60
2021/08/24 10:26:26;;;;;;;3.25;1.83;;;23.00;71.80;;;;;;4208498;28;20056;-60
2021/08/24 10:28:52;;;;;;;1.70;1.50;;;23.00;72.20;;;;;;4184529;28;20071;-59
2021/08/24 10:31:25;;;;;;;2.25;1.40;;;23.00;72.50;;;;;;4204006;28;20040;-60
2021/08/24 10:33:55;;;;;;;2.83;1.77;;;23.00;72.10;;;;;;4193137;28;20056;-60
2021/08/24 10:36:29;;;;;;;2.63;1.67;;;23.00;72.00;;;;;;4193109;28;20045;-60
2021/08/24 10:38:57;;;;;;;1.95;1.63;;;23.00;72.40;;;;;;4193362;28;20047;-61
2021/08/24 10:41:23;;;;;;;1.70;1.60;;;23.10;72.30;;;;;;4177140;28;20045;-60
2021/08/24 10:43:51;;;;;;;3.08;1.80;;;23.00;72.30;;;;;;4187019;28;20413;-59
2021/08/24 10:46:17;;;;;;;2.45;1.80;;;23.10;72.20;;;;;;4210117;28;20055;-60
2021/08/24 10:48:40;;;;;;;2.75;1.75;;;23.10;72.30;;;;;;4194250;28;20059;-60
2021/08/24 10:51:09;;;;;;;2.42;1.52;;;23.10;73.00;;;;;;4176716;28;20044;-61
2021/08/24 10:53:42;;;;;;;3.25;2.00;;;23.10;71.40;;;;;;4176876;28;20064;-60
2021/08/24 10:56:11;;;;;;;1.95;1.73;;;23.10;70.60;;;;;;4176815;28;20052;-60
2021/08/24 10:58:39;;;;;;;2.20;1.90;;;23.20;70.40;;;;;;4180157;28;20044;-61
2021/08/24 11:01:04;;;;;;;3.00;1.77;;;23.20;70.90;;;;;;4203185;28;20049;-60
2021/08/24 11:04:12;;;;;;;1.60;1.50;;;23.20;70.80;;;;;;4201339;28;20071;-60
2021/08/24 11:06:41;;;;;;;2.90;1.85;;;23.20;69.60;;;;;;4200729;28;20135;-61
2021/08/24 11:09:15;;;;;;;3.67;1.70;;;23.20;70.40;;;;;;4177015;28;20056;-61
2021/08/24 11:11:48;;;;;;;3.40;1.67;;;23.30;70.60;;;;;;4182110;28;20743;-60
2021/08/24 11:14:24;;;;;;;3.17;2.05;;;23.30;69.90;;;;;;4192837;28;20068;-59
2021/08/24 11:16:58;;;;;;;1.90;1.80;;;23.30;69.40;;;;;;4193038;28;20053;-60
2021/08/24 11:19:37;;;;;;;2.63;1.90;;;23.30;69.70;;;;;;4192987;28;20498;-60
2021/08/24 11:22:10;;;;;;;2.08;1.83;;;23.40;70.60;;;;;;4193105;28;20411;-58
2021/08/24 11:24:45;;;;;;;2.28;1.65;;;23.40;71.10;;;;;;4206320;28;20066;-59
2021/08/24 11:27:18;;;;;;;3.03;1.88;;;23.40;71.40;;;;;;4188877;28;20059;-59
2021/08/24 11:29:48;;;;;;;1.85;1.75;;;23.40;70.40;;;;;;4199237;28;20748;-59
2021/08/24 11:32:19;;;;;;;3.13;1.90;;;23.40;70.10;;;;;;4192594;28;20554;-59
2021/08/24 11:34:46;;;;;;;2.85;1.75;;;23.40;69.30;;;;;;4190884;28;20067;-60
2021/08/24 11:37:14;;;;;;;1.75;1.65;;;23.50;70.20;;;;;;4192877;28;20482;-59
2021/08/24 11:39:45;;;;;;;2.30;1.52;;;23.50;69.70;;;;;;4196988;28;20086;-60
2021/08/24 11:42:08;;;;;;;1.88;1.50;;;23.50;69.90;;;;;;4191071;28;20052;-61
2021/08/24 11:44:36;;;;;;;2.35;1.70;;;23.50;69.50;;;;;;4192825;28;20049;-60
2021/08/24 11:47:04;;;;;;;2.50;1.90;;;23.50;69.00;;;;;;4192294;28;20045;-60
2021/08/24 11:49:34;;;;;;;1.40;1.30;;;23.60;68.50;;;;;;4207945;28;20579;-60
2021/08/24 11:52:03;;;;;;;1.60;1.50;;;23.60;66.40;;;;;;4209124;28;20080;-60
2021/08/24 11:54:36;;;;;;;2.63;1.48;;;23.60;66.20;;;;;;4176016;28;20495;-62
2021/08/24 11:57:07;;;;;;;3.80;1.73;;;23.70;65.90;;;;;;4185937;28;20657;-61
2021/08/24 11:59:34;;;;;;;2.42;1.90;;;23.70;66.70;;;;;;4192111;28;20559;-60
2021/08/24 12:01:56;;;;;;;6.22;1.98;;;23.70;67.00;;;;;;4207557;28;20056;-58
2021/08/24 12:04:21;;;;;;;4.05;1.70;;;23.70;66.70;;;;;;4209211;28;20406;-60
2021/08/24 12:06:49;;;;;;;2.85;2.17;;;23.70;67.20;;;;;;4208895;28;20050;-61
2021/08/24 12:09:17;;;;;;;2.00;1.75;;;23.80;67.30;;;;;;4209050;28;20391;-60
2021/08/24 12:11:45;;;;;;;2.50;1.60;;;23.80;66.20;;;;;;4209216;28;20109;-60
2021/08/24 12:14:26;;;;;;;1.80;1.60;;;23.80;66.80;;;;;;4193389;28;20056;-58
2021/08/24 12:16:57;;;;;;;1.50;1.40;;;23.80;65.90;;;;;;4192102;28;20124;-59
2021/08/24 12:19:23;;;;;;;1.83;1.73;;;23.80;64.80;;;;;;4191967;28;20303;-59
2021/08/24 12:21:50;;;;;;;3.15;1.73;;;23.80;66.80;;;;;;4192337;28;20568;-59
2021/08/24 12:24:47;;;;;;;2.08;1.33;;;23.80;66.40;;;;;;4189794;28;20048;-59
2021/08/24 12:27:41;;;;;;;4.45;1.80;;;23.80;64.60;;;;;;4190530;28;20052;-59
2021/08/24 12:30:07;;;;;;;1.92;1.58;;;23.80;64.60;;;;;;4191523;28;20542;-61
2021/08/24 12:33:15;;;;;;;1.60;1.50;;;23.90;63.10;;;;;;4195800;28;20052;-60
2021/08/24 12:35:41;;;;;;;2.13;1.60;;;23.90;63.20;;;;;;4191604;28;20040;-59
2021/08/24 12:38:04;;;;;;;3.08;1.80;;;23.90;62.90;;;;;;4191862;28;20405;-59
2021/08/24 12:40:59;;;;;;;2.42;1.65;;;23.90;64.10;;;;;;4193225;28;20516;-60
2021/08/24 12:43:46;;;;;;;2.15;1.90;;;23.90;64.50;;;;;;4188477;28;20083;-59